KDEC/DEC METAR and TAF weather

Enter ICAO airport designator
Station Type Date Time Source
KDEC METAR 2019/06/16 06:33 UTC NOAA

KDEC 160633Z AUTO 28009G20KT 9SM VCTS -RA FEW049 SCT065 OVC090 19/17 A2976 RMK AO2 LTG DSNT S-W RAE0556B23 P0002 T01940167


Station Type Date Time Source
KDEC Decoded METAR 2019/06/16 06:33 UTC NOAA

DECATUR AIRPORT, IL, United States (KDEC) 39-50N 88-52W 207M
Jun 16, 2019 - 02:33 AM EDT / 2019.06.16 0633 UTC
Wind: from the W (280 degrees) at 10 MPH (9 KT) gusting to 23 MPH (20 KT):0
Visibility: 9 mile(s):0
Sky conditions: overcast
Weather: thunder in the vicinity; light rain; Lightning observed
Precipitation last hour: 0.02 inches
Temperature: 66.9 F (19.4 C)
Dew Point: 62.1 F (16.7 C)
Relative Humidity: 84%
Pressure (altimeter): 29.76 in. Hg (1007 hPa)
ob: KDEC 160633Z AUTO 28009G20KT 9SM VCTS -RA FEW049 SCT065 OVC090 19/17 A2976 RMK AO2 LTG DSNT S-W RAE0556B23 P0002 T01940167
cycle: 6

Station Type Date Time Source
KDEC TAF 2019/06/16 06:30 UTC NOAA

TAF KDEC 160526Z 1606/1706 23009KT P6SM VCTS SCT025CB BKN040 OVC080
TEMPO 1606/1608 29015G25KT 2SM TSRA BR BKN025CB OVC040
FM160800 22006KT P6SM -SHRA SCT025 OVC045
TEMPO 1608/1612 BKN025
FM161200 23006KT P6SM VCSH OVC025
FM161600 26006KT P6SM VCSH BKN035
FM170200 28005KT P6SM BKN050

Example: see airport list